sensor_id;sensor_type;location;lat;lon;timestamp;P1;durP1;ratioP1;P2;durP2;ratioP2
15356;SDS011;7778;48.792;9.260;2022-08-19T00:02:36;12.77;;;8.20;;
15356;SDS011;7778;48.792;9.260;2022-08-19T00:05:22;14.13;;;8.30;;
15356;SDS011;7778;48.792;9.260;2022-08-19T00:08:07;11.05;;;7.50;;
15356;SDS011;7778;48.792;9.260;2022-08-19T00:10:53;11.90;;;8.07;;
15356;SDS011;7778;48.792;9.260;2022-08-19T00:13:39;16.42;;;8.05;;
15356;SDS011;7778;48.792;9.260;2022-08-19T00:16:26;14.00;;;8.77;;
15356;SDS011;7778;48.792;9.260;2022-08-19T00:19:12;13.40;;;9.23;;
15356;SDS011;7778;48.792;9.260;2022-08-19T00:21:59;13.73;;;8.68;;
15356;SDS011;7778;48.792;9.260;2022-08-19T00:24:45;12.60;;;8.10;;
15356;SDS011;7778;48.792;9.260;2022-08-19T00:27:31;11.90;;;7.65;;
15356;SDS011;7778;48.792;9.260;2022-08-19T00:30:17;11.68;;;8.02;;
15356;SDS011;7778;48.792;9.260;2022-08-19T00:33:05;13.40;;;8.90;;
15356;SDS011;7778;48.792;9.260;2022-08-19T00:35:52;11.23;;;7.88;;
15356;SDS011;7778;48.792;9.260;2022-08-19T00:38:38;13.38;;;8.05;;
15356;SDS011;7778;48.792;9.260;2022-08-19T00:41:27;10.73;;;8.05;;
15356;SDS011;7778;48.792;9.260;2022-08-19T00:44:14;9.82;;;6.95;;
15356;SDS011;7778;48.792;9.260;2022-08-19T00:47:03;12.80;;;7.47;;
15356;SDS011;7778;48.792;9.260;2022-08-19T00:49:52;12.18;;;8.27;;
15356;SDS011;7778;48.792;9.260;2022-08-19T00:52:43;11.90;;;8.32;;
15356;SDS011;7778;48.792;9.260;2022-08-19T00:55:34;13.57;;;8.07;;
15356;SDS011;7778;48.792;9.260;2022-08-19T00:58:20;10.48;;;7.70;;
15356;SDS011;7778;48.792;9.260;2022-08-19T01:01:12;11.93;;;7.45;;
15356;SDS011;7778;48.792;9.260;2022-08-19T01:03:58;13.30;;;7.95;;
15356;SDS011;7778;48.792;9.260;2022-08-19T01:06:45;10.82;;;7.30;;
15356;SDS011;7778;48.792;9.260;2022-08-19T01:09:31;11.57;;;7.32;;
15356;SDS011;7778;48.792;9.260;2022-08-19T01:12:17;11.52;;;7.72;;
15356;SDS011;7778;48.792;9.260;2022-08-19T01:15:04;12.35;;;7.97;;
15356;SDS011;7778;48.792;9.260;2022-08-19T01:17:52;13.07;;;8.38;;
15356;SDS011;7778;48.792;9.260;2022-08-19T01:20:39;13.18;;;7.35;;
15356;SDS011;7778;48.792;9.260;2022-08-19T01:23:28;13.60;;;8.65;;
15356;SDS011;7778;48.792;9.260;2022-08-19T01:26:27;13.30;;;8.57;;
15356;SDS011;7778;48.792;9.260;2022-08-19T01:29:13;12.85;;;8.88;;
15356;SDS011;7778;48.792;9.260;2022-08-19T01:31:59;11.85;;;7.40;;
15356;SDS011;7778;48.792;9.260;2022-08-19T01:34:46;13.43;;;8.45;;
15356;SDS011;7778;48.792;9.260;2022-08-19T01:37:41;12.73;;;8.35;;
15356;SDS011;7778;48.792;9.260;2022-08-19T01:40:31;12.75;;;8.48;;
15356;SDS011;7778;48.792;9.260;2022-08-19T01:43:19;13.25;;;8.57;;
15356;SDS011;7778;48.792;9.260;2022-08-19T01:46:05;14.25;;;8.45;;
15356;SDS011;7778;48.792;9.260;2022-08-19T01:48:51;13.55;;;8.85;;
15356;SDS011;7778;48.792;9.260;2022-08-19T01:51:37;14.43;;;8.32;;
15356;SDS011;7778;48.792;9.260;2022-08-19T01:54:23;14.30;;;8.85;;
15356;SDS011;7778;48.792;9.260;2022-08-19T01:57:11;12.30;;;8.55;;
15356;SDS011;7778;48.792;9.260;2022-08-19T01:59:58;12.48;;;8.05;;
15356;SDS011;7778;48.792;9.260;2022-08-19T02:02:44;16.38;;;8.90;;
15356;SDS011;7778;48.792;9.260;2022-08-19T02:05:30;14.23;;;8.50;;
15356;SDS011;7778;48.792;9.260;2022-08-19T02:08:15;14.98;;;8.93;;
15356;SDS011;7778;48.792;9.260;2022-08-19T02:11:01;16.13;;;9.05;;
15356;SDS011;7778;48.792;9.260;2022-08-19T02:13:49;13.77;;;9.40;;
15356;SDS011;7778;48.792;9.260;2022-08-19T02:16:35;15.93;;;9.57;;
15356;SDS011;7778;48.792;9.260;2022-08-19T02:19:21;13.10;;;8.85;;
15356;SDS011;7778;48.792;9.260;2022-08-19T02:22:07;11.80;;;8.02;;
15356;SDS011;7778;48.792;9.260;2022-08-19T02:24:53;17.45;;;9.35;;
15356;SDS011;7778;48.792;9.260;2022-08-19T02:27:40;15.73;;;9.32;;
15356;SDS011;7778;48.792;9.260;2022-08-19T02:30:28;16.58;;;9.50;;
15356;SDS011;7778;48.792;9.260;2022-08-19T02:33:13;14.05;;;8.77;;
15356;SDS011;7778;48.792;9.260;2022-08-19T02:35:59;14.20;;;10.00;;
15356;SDS011;7778;48.792;9.260;2022-08-19T02:38:49;16.88;;;10.88;;
15356;SDS011;7778;48.792;9.260;2022-08-19T02:41:34;16.10;;;9.57;;
15356;SDS011;7778;48.792;9.260;2022-08-19T02:44:20;16.63;;;10.30;;
15356;SDS011;7778;48.792;9.260;2022-08-19T02:47:07;13.88;;;9.30;;
15356;SDS011;7778;48.792;9.260;2022-08-19T02:49:54;15.40;;;9.65;;
15356;SDS011;7778;48.792;9.260;2022-08-19T02:52:40;15.98;;;10.32;;
15356;SDS011;7778;48.792;9.260;2022-08-19T02:55:25;19.02;;;10.75;;
15356;SDS011;7778;48.792;9.260;2022-08-19T02:58:11;14.32;;;9.70;;
15356;SDS011;7778;48.792;9.260;2022-08-19T03:00:58;15.85;;;10.15;;
15356;SDS011;7778;48.792;9.260;2022-08-19T03:03:45;18.20;;;10.75;;
15356;SDS011;7778;48.792;9.260;2022-08-19T03:06:31;16.02;;;10.65;;
15356;SDS011;7778;48.792;9.260;2022-08-19T03:09:17;18.65;;;10.57;;
15356;SDS011;7778;48.792;9.260;2022-08-19T03:12:05;17.17;;;10.65;;
15356;SDS011;7778;48.792;9.260;2022-08-19T03:14:51;17.42;;;11.18;;
15356;SDS011;7778;48.792;9.260;2022-08-19T03:17:36;17.88;;;11.32;;
15356;SDS011;7778;48.792;9.260;2022-08-19T03:20:23;18.40;;;11.10;;
15356;SDS011;7778;48.792;9.260;2022-08-19T03:23:09;21.02;;;11.70;;
15356;SDS011;7778;48.792;9.260;2022-08-19T03:25:56;16.63;;;10.95;;
15356;SDS011;7778;48.792;9.260;2022-08-19T03:28:41;17.75;;;10.75;;
15356;SDS011;7778;48.792;9.260;2022-08-19T03:31:29;17.88;;;11.13;;
15356;SDS011;7778;48.792;9.260;2022-08-19T03:34:16;18.65;;;11.85;;
15356;SDS011;7778;48.792;9.260;2022-08-19T03:37:07;16.42;;;11.13;;
15356;SDS011;7778;48.792;9.260;2022-08-19T03:39:55;18.38;;;11.25;;
15356;SDS011;7778;48.792;9.260;2022-08-19T03:42:41;17.00;;;10.35;;
15356;SDS011;7778;48.792;9.260;2022-08-19T03:45:26;17.27;;;11.20;;
15356;SDS011;7778;48.792;9.260;2022-08-19T03:48:12;17.95;;;11.85;;
15356;SDS011;7778;48.792;9.260;2022-08-19T03:50:59;19.60;;;11.55;;
15356;SDS011;7778;48.792;9.260;2022-08-19T03:53:46;18.42;;;11.85;;
15356;SDS011;7778;48.792;9.260;2022-08-19T03:56:33;18.73;;;11.27;;
15356;SDS011;7778;48.792;9.260;2022-08-19T03:59:21;19.05;;;12.57;;
15356;SDS011;7778;48.792;9.260;2022-08-19T04:02:10;24.35;;;14.02;;
15356;SDS011;7778;48.792;9.260;2022-08-19T04:04:57;18.85;;;11.23;;
15356;SDS011;7778;48.792;9.260;2022-08-19T04:07:42;20.83;;;12.77;;
15356;SDS011;7778;48.792;9.260;2022-08-19T04:10:29;20.00;;;11.80;;
15356;SDS011;7778;48.792;9.260;2022-08-19T04:13:16;22.10;;;13.30;;
15356;SDS011;7778;48.792;9.260;2022-08-19T04:16:02;19.95;;;12.13;;
15356;SDS011;7778;48.792;9.260;2022-08-19T04:18:48;19.75;;;12.57;;
15356;SDS011;7778;48.792;9.260;2022-08-19T04:21:34;19.45;;;11.93;;
15356;SDS011;7778;48.792;9.260;2022-08-19T04:24:21;21.25;;;11.88;;
15356;SDS011;7778;48.792;9.260;2022-08-19T04:27:08;22.48;;;14.45;;
15356;SDS011;7778;48.792;9.260;2022-08-19T04:29:54;19.50;;;12.38;;
15356;SDS011;7778;48.792;9.260;2022-08-19T04:32:40;18.52;;;12.40;;
15356;SDS011;7778;48.792;9.260;2022-08-19T04:35:27;21.15;;;12.25;;
15356;SDS011;7778;48.792;9.260;2022-08-19T04:38:14;20.55;;;13.23;;
15356;SDS011;7778;48.792;9.260;2022-08-19T04:41:02;17.95;;;11.70;;
15356;SDS011;7778;48.792;9.260;2022-08-19T04:44:07;20.75;;;12.77;;
15356;SDS011;7778;48.792;9.260;2022-08-19T04:46:54;20.33;;;12.63;;
15356;SDS011;7778;48.792;9.260;2022-08-19T04:49:39;18.30;;;12.35;;
15356;SDS011;7778;48.792;9.260;2022-08-19T04:52:25;20.13;;;13.05;;
15356;SDS011;7778;48.792;9.260;2022-08-19T04:55:11;20.27;;;13.18;;
15356;SDS011;7778;48.792;9.260;2022-08-19T04:57:58;22.95;;;14.13;;
15356;SDS011;7778;48.792;9.260;2022-08-19T05:00:46;19.02;;;12.07;;
15356;SDS011;7778;48.792;9.260;2022-08-19T05:03:32;21.42;;;13.73;;
15356;SDS011;7778;48.792;9.260;2022-08-19T05:06:19;20.00;;;11.90;;
15356;SDS011;7778;48.792;9.260;2022-08-19T05:09:06;21.30;;;13.77;;
15356;SDS011;7778;48.792;9.260;2022-08-19T05:11:51;18.30;;;12.10;;
15356;SDS011;7778;48.792;9.260;2022-08-19T05:14:37;21.08;;;13.93;;
15356;SDS011;7778;48.792;9.260;2022-08-19T05:17:24;25.85;;;13.48;;
15356;SDS011;7778;48.792;9.260;2022-08-19T05:20:11;21.05;;;13.48;;
15356;SDS011;7778;48.792;9.260;2022-08-19T05:23:15;16.20;;;11.35;;
15356;SDS011;7778;48.792;9.260;2022-08-19T05:26:00;19.48;;;12.07;;
15356;SDS011;7778;48.792;9.260;2022-08-19T05:28:46;18.38;;;13.00;;
15356;SDS011;7778;48.792;9.260;2022-08-19T05:31:31;23.35;;;13.38;;
15356;SDS011;7778;48.792;9.260;2022-08-19T05:34:19;20.85;;;13.57;;
15356;SDS011;7778;48.792;9.260;2022-08-19T05:37:08;19.35;;;11.75;;
15356;SDS011;7778;48.792;9.260;2022-08-19T05:39:55;18.42;;;11.77;;
15356;SDS011;7778;48.792;9.260;2022-08-19T05:42:41;18.52;;;12.10;;
15356;SDS011;7778;48.792;9.260;2022-08-19T05:45:26;18.23;;;11.70;;
15356;SDS011;7778;48.792;9.260;2022-08-19T05:48:13;18.70;;;12.13;;
15356;SDS011;7778;48.792;9.260;2022-08-19T05:51:03;17.27;;;11.82;;
15356;SDS011;7778;48.792;9.260;2022-08-19T05:53:52;18.73;;;13.15;;
15356;SDS011;7778;48.792;9.260;2022-08-19T05:56:37;19.23;;;13.07;;
15356;SDS011;7778;48.792;9.260;2022-08-19T05:59:23;20.17;;;12.95;;
15356;SDS011;7778;48.792;9.260;2022-08-19T06:02:09;21.38;;;13.63;;
15356;SDS011;7778;48.792;9.260;2022-08-19T06:04:55;20.33;;;13.50;;
15356;SDS011;7778;48.792;9.260;2022-08-19T06:07:42;20.02;;;13.35;;
15356;SDS011;7778;48.792;9.260;2022-08-19T06:10:28;24.48;;;13.98;;
15356;SDS011;7778;48.792;9.260;2022-08-19T06:13:13;22.45;;;14.95;;
15356;SDS011;7778;48.792;9.260;2022-08-19T06:15:59;19.10;;;14.00;;
15356;SDS011;7778;48.792;9.260;2022-08-19T06:18:45;19.60;;;13.63;;
15356;SDS011;7778;48.792;9.260;2022-08-19T06:21:30;22.23;;;15.10;;
15356;SDS011;7778;48.792;9.260;2022-08-19T06:24:18;22.83;;;14.07;;
15356;SDS011;7778;48.792;9.260;2022-08-19T06:27:07;20.65;;;13.68;;
15356;SDS011;7778;48.792;9.260;2022-08-19T06:29:53;21.00;;;13.95;;
15356;SDS011;7778;48.792;9.260;2022-08-19T06:32:39;24.05;;;14.70;;
15356;SDS011;7778;48.792;9.260;2022-08-19T06:35:25;22.38;;;14.27;;
15356;SDS011;7778;48.792;9.260;2022-08-19T06:38:13;22.88;;;13.85;;
15356;SDS011;7778;48.792;9.260;2022-08-19T06:41:01;25.25;;;14.10;;
15356;SDS011;7778;48.792;9.260;2022-08-19T06:43:47;25.70;;;14.38;;
15356;SDS011;7778;48.792;9.260;2022-08-19T06:46:33;26.15;;;14.50;;
15356;SDS011;7778;48.792;9.260;2022-08-19T06:49:19;23.30;;;14.00;;
15356;SDS011;7778;48.792;9.260;2022-08-19T06:52:06;24.10;;;15.25;;
15356;SDS011;7778;48.792;9.260;2022-08-19T06:54:55;22.05;;;14.43;;
15356;SDS011;7778;48.792;9.260;2022-08-19T06:57:42;23.38;;;14.95;;
15356;SDS011;7778;48.792;9.260;2022-08-19T07:00:28;23.23;;;13.95;;
15356;SDS011;7778;48.792;9.260;2022-08-19T07:03:14;20.58;;;14.07;;
15356;SDS011;7778;48.792;9.260;2022-08-19T07:06:02;23.67;;;13.88;;
15356;SDS011;7778;48.792;9.260;2022-08-19T07:08:49;22.05;;;14.40;;
15356;SDS011;7778;48.792;9.260;2022-08-19T07:11:35;22.55;;;14.80;;
15356;SDS011;7778;48.792;9.260;2022-08-19T07:14:23;28.73;;;14.82;;
15356;SDS011;7778;48.792;9.260;2022-08-19T07:17:11;21.08;;;14.10;;
15356;SDS011;7778;48.792;9.260;2022-08-19T07:19:58;21.40;;;12.93;;
15356;SDS011;7778;48.792;9.260;2022-08-19T07:22:43;23.38;;;14.15;;
15356;SDS011;7778;48.792;9.260;2022-08-19T07:25:29;20.60;;;14.40;;
15356;SDS011;7778;48.792;9.260;2022-08-19T07:28:15;22.88;;;14.73;;
15356;SDS011;7778;48.792;9.260;2022-08-19T07:31:03;22.05;;;13.35;;
15356;SDS011;7778;48.792;9.260;2022-08-19T07:33:51;26.27;;;14.48;;
15356;SDS011;7778;48.792;9.260;2022-08-19T07:36:40;21.23;;;13.63;;
15356;SDS011;7778;48.792;9.260;2022-08-19T07:39:28;21.92;;;13.55;;
15356;SDS011;7778;48.792;9.260;2022-08-19T07:42:15;20.55;;;14.40;;
15356;SDS011;7778;48.792;9.260;2022-08-19T07:45:02;21.20;;;13.95;;
15356;SDS011;7778;48.792;9.260;2022-08-19T07:47:51;22.73;;;13.65;;
15356;SDS011;7778;48.792;9.260;2022-08-19T07:50:36;20.90;;;13.30;;
15356;SDS011;7778;48.792;9.260;2022-08-19T07:53:22;21.05;;;12.88;;
15356;SDS011;7778;48.792;9.260;2022-08-19T07:56:09;23.08;;;13.23;;
15356;SDS011;7778;48.792;9.260;2022-08-19T07:58:55;23.27;;;14.00;;
15356;SDS011;7778;48.792;9.260;2022-08-19T08:01:41;19.98;;;13.13;;
15356;SDS011;7778;48.792;9.260;2022-08-19T08:04:29;23.83;;;13.52;;
15356;SDS011;7778;48.792;9.260;2022-08-19T08:07:33;20.48;;;13.35;;
15356;SDS011;7778;48.792;9.260;2022-08-19T08:10:37;22.05;;;13.70;;
15356;SDS011;7778;48.792;9.260;2022-08-19T08:13:23;24.63;;;13.32;;
15356;SDS011;7778;48.792;9.260;2022-08-19T08:16:10;19.60;;;12.85;;
15356;SDS011;7778;48.792;9.260;2022-08-19T08:18:56;20.55;;;13.30;;
15356;SDS011;7778;48.792;9.260;2022-08-19T08:21:43;21.48;;;13.30;;
15356;SDS011;7778;48.792;9.260;2022-08-19T08:24:29;19.02;;;11.75;;
15356;SDS011;7778;48.792;9.260;2022-08-19T08:27:15;22.42;;;13.55;;
15356;SDS011;7778;48.792;9.260;2022-08-19T08:30:02;21.35;;;13.63;;
15356;SDS011;7778;48.792;9.260;2022-08-19T08:32:50;22.42;;;13.82;;
15356;SDS011;7778;48.792;9.260;2022-08-19T08:35:36;19.40;;;12.68;;
15356;SDS011;7778;48.792;9.260;2022-08-19T08:38:24;24.83;;;14.30;;
15356;SDS011;7778;48.792;9.260;2022-08-19T08:41:14;19.67;;;12.27;;
15356;SDS011;7778;48.792;9.260;2022-08-19T08:44:11;19.90;;;13.23;;
15356;SDS011;7778;48.792;9.260;2022-08-19T08:47:04;18.23;;;12.65;;
15356;SDS011;7778;48.792;9.260;2022-08-19T08:49:58;19.30;;;11.80;;
15356;SDS011;7778;48.792;9.260;2022-08-19T08:52:48;20.35;;;12.73;;
15356;SDS011;7778;48.792;9.260;2022-08-19T08:55:40;17.35;;;12.73;;
15356;SDS011;7778;48.792;9.260;2022-08-19T08:58:31;19.88;;;12.73;;
15356;SDS011;7778;48.792;9.260;2022-08-19T09:01:30;21.20;;;13.00;;
15356;SDS011;7778;48.792;9.260;2022-08-19T09:04:17;17.38;;;11.65;;
15356;SDS011;7778;48.792;9.260;2022-08-19T09:07:10;19.10;;;12.05;;
15356;SDS011;7778;48.792;9.260;2022-08-19T09:10:09;20.40;;;13.52;;
15356;SDS011;7778;48.792;9.260;2022-08-19T09:13:07;18.73;;;13.07;;
15356;SDS011;7778;48.792;9.260;2022-08-19T09:16:00;17.80;;;11.60;;
15356;SDS011;7778;48.792;9.260;2022-08-19T09:18:54;18.70;;;13.30;;
15356;SDS011;7778;48.792;9.260;2022-08-19T09:21:43;18.48;;;11.40;;
15356;SDS011;7778;48.792;9.260;2022-08-19T09:24:29;16.42;;;11.15;;
15356;SDS011;7778;48.792;9.260;2022-08-19T09:27:14;19.92;;;13.35;;
15356;SDS011;7778;48.792;9.260;2022-08-19T09:30:03;17.80;;;12.60;;
15356;SDS011;7778;48.792;9.260;2022-08-19T09:32:50;16.10;;;11.23;;
15356;SDS011;7778;48.792;9.260;2022-08-19T09:35:37;17.77;;;12.30;;
15356;SDS011;7778;48.792;9.260;2022-08-19T09:38:22;19.92;;;11.88;;
15356;SDS011;7778;48.792;9.260;2022-08-19T09:41:09;17.10;;;11.35;;
15356;SDS011;7778;48.792;9.260;2022-08-19T09:43:58;19.55;;;13.23;;
15356;SDS011;7778;48.792;9.260;2022-08-19T09:46:46;17.67;;;11.88;;
15356;SDS011;7778;48.792;9.260;2022-08-19T09:49:32;17.42;;;11.98;;
15356;SDS011;7778;48.792;9.260;2022-08-19T09:52:18;21.13;;;12.55;;
15356;SDS011;7778;48.792;9.260;2022-08-19T09:55:04;20.05;;;13.27;;
15356;SDS011;7778;48.792;9.260;2022-08-19T09:57:53;18.50;;;11.85;;
15356;SDS011;7778;48.792;9.260;2022-08-19T10:00:39;20.00;;;12.98;;
15356;SDS011;7778;48.792;9.260;2022-08-19T10:03:26;20.48;;;13.13;;
15356;SDS011;7778;48.792;9.260;2022-08-19T10:06:13;19.15;;;12.43;;
15356;SDS011;7778;48.792;9.260;2022-08-19T10:08:59;20.33;;;12.85;;
15356;SDS011;7778;48.792;9.260;2022-08-19T10:11:47;19.08;;;13.27;;
15356;SDS011;7778;48.792;9.260;2022-08-19T10:14:33;18.52;;;12.85;;
15356;SDS011;7778;48.792;9.260;2022-08-19T10:17:19;19.50;;;13.27;;
15356;SDS011;7778;48.792;9.260;2022-08-19T10:20:07;20.33;;;12.88;;
15356;SDS011;7778;48.792;9.260;2022-08-19T10:22:53;19.13;;;12.52;;
15356;SDS011;7778;48.792;9.260;2022-08-19T10:25:39;19.75;;;13.13;;
15356;SDS011;7778;48.792;9.260;2022-08-19T10:28:26;19.38;;;12.85;;
15356;SDS011;7778;48.792;9.260;2022-08-19T10:31:15;19.83;;;13.55;;
15356;SDS011;7778;48.792;9.260;2022-08-19T10:34:04;18.45;;;12.93;;
15356;SDS011;7778;48.792;9.260;2022-08-19T10:36:51;18.35;;;12.27;;
15356;SDS011;7778;48.792;9.260;2022-08-19T10:39:37;19.35;;;13.95;;
15356;SDS011;7778;48.792;9.260;2022-08-19T10:42:23;16.85;;;12.30;;
15356;SDS011;7778;48.792;9.260;2022-08-19T10:45:09;15.45;;;11.70;;
15356;SDS011;7778;48.792;9.260;2022-08-19T10:47:55;19.65;;;11.95;;
15356;SDS011;7778;48.792;9.260;2022-08-19T10:50:41;18.67;;;12.23;;
15356;SDS011;7778;48.792;9.260;2022-08-19T10:53:46;18.02;;;12.63;;
15356;SDS011;7778;48.792;9.260;2022-08-19T10:56:32;18.83;;;12.23;;
15356;SDS011;7778;48.792;9.260;2022-08-19T10:59:36;17.17;;;11.02;;
15356;SDS011;7778;48.792;9.260;2022-08-19T11:02:22;15.98;;;10.68;;
15356;SDS011;7778;48.792;9.260;2022-08-19T11:05:09;16.17;;;10.70;;
15356;SDS011;7778;48.792;9.260;2022-08-19T11:07:55;21.33;;;11.57;;
15356;SDS011;7778;48.792;9.260;2022-08-19T11:10:42;16.77;;;11.02;;
15356;SDS011;7778;48.792;9.260;2022-08-19T11:13:28;20.92;;;12.30;;
15356;SDS011;7778;48.792;9.260;2022-08-19T11:16:17;17.70;;;10.95;;
15356;SDS011;7778;48.792;9.260;2022-08-19T11:19:06;16.45;;;10.65;;
15356;SDS011;7778;48.792;9.260;2022-08-19T11:21:54;16.40;;;11.57;;
15356;SDS011;7778;48.792;9.260;2022-08-19T11:24:40;17.60;;;12.35;;
15356;SDS011;7778;48.792;9.260;2022-08-19T11:27:26;15.80;;;11.35;;
15356;SDS011;7778;48.792;9.260;2022-08-19T11:30:12;18.77;;;12.75;;
15356;SDS011;7778;48.792;9.260;2022-08-19T11:32:59;17.95;;;11.70;;
15356;SDS011;7778;48.792;9.260;2022-08-19T11:35:46;19.05;;;13.60;;
15356;SDS011;7778;48.792;9.260;2022-08-19T11:41:20;20.27;;;13.70;;
15356;SDS011;7778;48.792;9.260;2022-08-19T11:44:09;24.98;;;15.38;;
15356;SDS011;7778;48.792;9.260;2022-08-19T11:46:57;21.00;;;13.43;;
15356;SDS011;7778;48.792;9.260;2022-08-19T11:49:45;23.08;;;14.77;;
15356;SDS011;7778;48.792;9.260;2022-08-19T11:52:30;22.33;;;13.90;;
15356;SDS011;7778;48.792;9.260;2022-08-19T11:55:16;20.35;;;14.95;;
15356;SDS011;7778;48.792;9.260;2022-08-19T11:58:02;20.63;;;14.63;;
15356;SDS011;7778;48.792;9.260;2022-08-19T12:00:51;25.25;;;16.15;;
15356;SDS011;7778;48.792;9.260;2022-08-19T12:03:37;22.92;;;15.27;;
15356;SDS011;7778;48.792;9.260;2022-08-19T12:06:24;23.33;;;14.13;;
15356;SDS011;7778;48.792;9.260;2022-08-19T12:09:13;21.20;;;13.18;;
15356;SDS011;7778;48.792;9.260;2022-08-19T12:57:47;27.73;;;16.65;;
15356;SDS011;7778;48.792;9.260;2022-08-19T13:00:34;27.13;;;17.00;;
15356;SDS011;7778;48.792;9.260;2022-08-19T13:03:19;29.55;;;17.23;;
15356;SDS011;7778;48.792;9.260;2022-08-19T13:08:48;26.13;;;16.55;;
15356;SDS011;7778;48.792;9.260;2022-08-19T13:11:34;27.45;;;17.30;;
15356;SDS011;7778;48.792;9.260;2022-08-19T13:14:21;28.98;;;16.15;;
15356;SDS011;7778;48.792;9.260;2022-08-19T13:19:49;24.98;;;16.67;;
15356;SDS011;7778;48.792;9.260;2022-08-19T13:22:35;26.40;;;17.10;;
15356;SDS011;7778;48.792;9.260;2022-08-19T13:25:22;30.02;;;19.38;;
15356;SDS011;7778;48.792;9.260;2022-08-19T13:28:08;28.08;;;17.58;;
15356;SDS011;7778;48.792;9.260;2022-08-19T13:30:55;29.50;;;18.73;;
15356;SDS011;7778;48.792;9.260;2022-08-19T13:33:59;33.60;;;18.00;;
15356;SDS011;7778;48.792;9.260;2022-08-19T13:36:45;32.85;;;19.23;;
15356;SDS011;7778;48.792;9.260;2022-08-19T13:39:31;30.35;;;18.88;;
15356;SDS011;7778;48.792;9.260;2022-08-19T13:42:26;29.13;;;17.20;;
15356;SDS011;7778;48.792;9.260;2022-08-19T13:45:17;27.90;;;18.10;;
15356;SDS011;7778;48.792;9.260;2022-08-19T13:48:07;24.90;;;16.15;;
15356;SDS011;7778;48.792;9.260;2022-08-19T13:50:53;27.63;;;17.35;;
15356;SDS011;7778;48.792;9.260;2022-08-19T13:53:39;25.25;;;16.45;;
15356;SDS011;7778;48.792;9.260;2022-08-19T13:56:26;29.55;;;19.30;;
15356;SDS011;7778;48.792;9.260;2022-08-19T13:59:12;30.35;;;17.98;;
15356;SDS011;7778;48.792;9.260;2022-08-19T14:01:58;28.10;;;18.10;;
15356;SDS011;7778;48.792;9.260;2022-08-19T14:04:46;29.08;;;17.70;;
15356;SDS011;7778;48.792;9.260;2022-08-19T14:07:32;29.33;;;18.48;;
15356;SDS011;7778;48.792;9.260;2022-08-19T14:10:18;30.73;;;19.58;;
15356;SDS011;7778;48.792;9.260;2022-08-19T14:13:06;32.08;;;19.08;;
15356;SDS011;7778;48.792;9.260;2022-08-19T14:15:52;32.00;;;19.85;;
15356;SDS011;7778;48.792;9.260;2022-08-19T14:18:38;31.00;;;18.63;;
15356;SDS011;7778;48.792;9.260;2022-08-19T14:21:25;33.60;;;20.05;;
15356;SDS011;7778;48.792;9.260;2022-08-19T14:24:11;31.23;;;19.83;;
15356;SDS011;7778;48.792;9.260;2022-08-19T14:26:57;34.65;;;19.42;;
15356;SDS011;7778;48.792;9.260;2022-08-19T14:29:44;35.20;;;20.70;;
15356;SDS011;7778;48.792;9.260;2022-08-19T14:32:29;36.65;;;21.02;;
15356;SDS011;7778;48.792;9.260;2022-08-19T14:35:15;33.50;;;21.17;;
15356;SDS011;7778;48.792;9.260;2022-08-19T14:38:03;35.33;;;21.30;;
15356;SDS011;7778;48.792;9.260;2022-08-19T14:40:50;36.85;;;22.13;;
15356;SDS011;7778;48.792;9.260;2022-08-19T14:43:36;28.15;;;18.33;;
15356;SDS011;7778;48.792;9.260;2022-08-19T14:46:23;30.10;;;18.75;;
15356;SDS011;7778;48.792;9.260;2022-08-19T14:49:11;37.63;;;20.70;;
15356;SDS011;7778;48.792;9.260;2022-08-19T14:51:57;33.83;;;20.13;;
15356;SDS011;7778;48.792;9.260;2022-08-19T14:54:44;26.67;;;18.45;;
15356;SDS011;7778;48.792;9.260;2022-08-19T14:57:30;31.63;;;20.17;;
15356;SDS011;7778;48.792;9.260;2022-08-19T15:00:15;33.72;;;20.20;;
15356;SDS011;7778;48.792;9.260;2022-08-19T15:03:02;32.30;;;19.52;;
15356;SDS011;7778;48.792;9.260;2022-08-19T15:05:48;28.02;;;17.85;;
15356;SDS011;7778;48.792;9.260;2022-08-19T15:08:34;30.83;;;18.88;;
15356;SDS011;7778;48.792;9.260;2022-08-19T15:11:24;25.52;;;17.25;;
15356;SDS011;7778;48.792;9.260;2022-08-19T15:14:11;23.92;;;16.42;;
15356;SDS011;7778;48.792;9.260;2022-08-19T15:16:58;29.30;;;17.48;;
15356;SDS011;7778;48.792;9.260;2022-08-19T15:19:44;25.25;;;17.40;;
15356;SDS011;7778;48.792;9.260;2022-08-19T15:22:30;27.05;;;17.52;;
15356;SDS011;7778;48.792;9.260;2022-08-19T15:25:17;28.73;;;17.20;;
15356;SDS011;7778;48.792;9.260;2022-08-19T15:28:05;23.88;;;17.45;;
15356;SDS011;7778;48.792;9.260;2022-08-19T15:30:51;26.52;;;17.40;;
15356;SDS011;7778;48.792;9.260;2022-08-19T15:33:37;26.20;;;16.15;;
15356;SDS011;7778;48.792;9.260;2022-08-19T15:36:27;24.80;;;15.18;;
15356;SDS011;7778;48.792;9.260;2022-08-19T15:39:14;26.77;;;16.08;;
15356;SDS011;7778;48.792;9.260;2022-08-19T15:41:59;23.27;;;15.80;;
15356;SDS011;7778;48.792;9.260;2022-08-19T15:44:47;23.02;;;14.55;;
15356;SDS011;7778;48.792;9.260;2022-08-19T15:47:34;25.33;;;16.15;;
15356;SDS011;7778;48.792;9.260;2022-08-19T15:50:21;21.70;;;14.10;;
15356;SDS011;7778;48.792;9.260;2022-08-19T15:53:08;25.63;;;17.30;;
15356;SDS011;7778;48.792;9.260;2022-08-19T15:55:54;24.85;;;16.02;;
15356;SDS011;7778;48.792;9.260;2022-08-19T15:58:40;25.65;;;15.85;;
15356;SDS011;7778;48.792;9.260;2022-08-19T16:01:45;24.45;;;16.13;;
15356;SDS011;7778;48.792;9.260;2022-08-19T16:04:50;22.67;;;14.90;;
15356;SDS011;7778;48.792;9.260;2022-08-19T16:07:54;19.25;;;14.02;;
15356;SDS011;7778;48.792;9.260;2022-08-19T16:10:40;19.92;;;14.75;;
15356;SDS011;7778;48.792;9.260;2022-08-19T16:13:26;24.27;;;14.77;;
15356;SDS011;7778;48.792;9.260;2022-08-19T16:16:11;20.48;;;13.80;;
15356;SDS011;7778;48.792;9.260;2022-08-19T16:18:59;21.17;;;12.38;;
15356;SDS011;7778;48.792;9.260;2022-08-19T16:21:50;19.75;;;13.88;;
15356;SDS011;7778;48.792;9.260;2022-08-19T16:24:38;19.85;;;13.68;;
15356;SDS011;7778;48.792;9.260;2022-08-19T16:27:24;21.50;;;14.35;;
15356;SDS011;7778;48.792;9.260;2022-08-19T16:30:10;19.95;;;12.77;;
15356;SDS011;7778;48.792;9.260;2022-08-19T16:32:56;21.42;;;14.68;;
15356;SDS011;7778;48.792;9.260;2022-08-19T16:35:43;19.30;;;12.45;;
15356;SDS011;7778;48.792;9.260;2022-08-19T16:38:29;18.63;;;12.88;;
15356;SDS011;7778;48.792;9.260;2022-08-19T16:41:15;16.40;;;12.32;;
15356;SDS011;7778;48.792;9.260;2022-08-19T16:44:01;19.05;;;12.98;;
15356;SDS011;7778;48.792;9.260;2022-08-19T16:46:47;18.65;;;13.48;;
15356;SDS011;7778;48.792;9.260;2022-08-19T16:49:33;18.63;;;12.48;;
15356;SDS011;7778;48.792;9.260;2022-08-19T16:52:21;19.38;;;13.57;;
15356;SDS011;7778;48.792;9.260;2022-08-19T16:55:08;19.73;;;12.82;;
15356;SDS011;7778;48.792;9.260;2022-08-19T16:57:54;15.88;;;12.15;;
15356;SDS011;7778;48.792;9.260;2022-08-19T17:00:40;19.83;;;11.95;;
15356;SDS011;7778;48.792;9.260;2022-08-19T17:03:25;17.15;;;11.52;;
15356;SDS011;7778;48.792;9.260;2022-08-19T17:06:13;18.65;;;12.10;;
15356;SDS011;7778;48.792;9.260;2022-08-19T17:09:02;16.40;;;12.23;;
15356;SDS011;7778;48.792;9.260;2022-08-19T17:11:50;19.33;;;12.30;;
15356;SDS011;7778;48.792;9.260;2022-08-19T17:14:35;20.90;;;12.00;;
15356;SDS011;7778;48.792;9.260;2022-08-19T17:17:21;16.77;;;11.55;;
15356;SDS011;7778;48.792;9.260;2022-08-19T17:20:07;16.08;;;11.05;;
15356;SDS011;7778;48.792;9.260;2022-08-19T17:22:53;16.10;;;10.93;;
15356;SDS011;7778;48.792;9.260;2022-08-19T17:25:41;16.40;;;11.13;;
15356;SDS011;7778;48.792;9.260;2022-08-19T17:28:28;22.80;;;12.70;;
15356;SDS011;7778;48.792;9.260;2022-08-19T17:31:14;15.77;;;10.95;;